Time;durP1;ratioP1;P1;durP2;ratioP2;P2;SDS_P1;SDS_P2;PMS_P1;PMS_P2;Temp;Humidity;BMP_temperature;BMP_pressure;BME280_temperature;BME280_humidity;BME280_pressure;Samples;Min_cycle;Max_cycle;Signal;HPM_P1;HPM_P2
2021/12/06 00:01:19;;;;;;;13.30;2.58;;;;;;;;;;4853726;29;20034;-79
2021/12/06 00:03:44;;;;;;;;;;;;;;;;;;4860914;29;20077;-79
2021/12/06 00:06:11;;;;;;;19.30;2.63;;;;;;;;;;4847364;29;19917;-79
2021/12/06 00:08:38;;;;;;;18.98;3.25;;;;;;;;;;4847317;29;20622;-79
2021/12/06 00:11:09;;;;;;;15.48;2.83;;;;;;;;;;4860467;29;20093;-79
2021/12/06 00:13:36;;;;;;;23.40;3.28;;;;;;;;;;4860346;29;20509;-79
2021/12/06 00:16:06;;;;;;;17.42;2.78;;;;;;;;;;4860156;29;20090;-79
2021/12/06 00:18:33;;;;;;;20.98;3.67;;;;;;;;;;4860200;29;20054;-79
2021/12/06 00:20:59;;;;;;;20.17;3.85;;;;;;;;;;4859662;29;20049;-80
2021/12/06 00:23:25;;;;;;;18.98;3.35;;;;;;;;;;4852642;29;20402;-79
2021/12/06 00:25:51;;;;;;;13.77;3.20;;;;;;;;;;4841409;29;20549;-79
2021/12/06 00:28:17;;;;;;;13.75;2.83;;;;;;;;;;4842192;29;20495;-79
2021/12/06 00:30:43;;;;;;;17.83;2.60;;;;;;;;;;4841210;29;20022;-79
2021/12/06 00:33:09;;;;;;;18.33;2.88;;;;;;;;;;4845841;29;20034;-79
2021/12/06 00:35:35;;;;;;;23.48;2.97;;;;;;;;;;4860147;29;20025;-79
2021/12/06 00:38:01;;;;;;;17.15;3.35;;;;;;;;;;4859874;29;20093;-79
2021/12/06 00:40:35;;;;;;;19.42;3.67;;;;;;;;;;4845902;29;20033;-79
2021/12/06 00:43:02;;;;;;;15.32;3.08;;;;;;;;;;4840364;29;20057;-79
2021/12/06 00:45:28;;;;;;;23.25;3.85;;;;;;;;;;4855963;29;20375;-79
2021/12/06 00:47:54;;;;;;;20.65;3.88;;;;;;;;;;4859892;29;20026;-80
2021/12/06 00:50:22;;;;;;;20.77;3.03;;;;;;;;;;4863587;29;20486;-79
2021/12/06 00:52:49;;;;;;;22.23;3.15;;;;;;;;;;4863107;29;20048;-79
2021/12/06 00:55:15;;;;;;;23.52;3.22;;;;;;;;;;4857561;29;20022;-79
2021/12/06 00:57:42;;;;;;;16.65;3.55;;;;;;;;;;4853169;29;20033;-79
2021/12/06 01:00:27;;;;;;;17.50;3.63;;;;;;;;;;4844977;29;20030;-79
2021/12/06 01:02:54;;;;;;;14.30;2.70;;;;;;;;;;4861757;29;20073;-79
2021/12/06 01:05:23;;;;;;;17.98;2.72;;;;;;;;;;4863350;29;20037;-79
2021/12/06 01:07:50;;;;;;;18.42;2.72;;;;;;;;;;4861774;29;20033;-79
2021/12/06 01:10:16;;;;;;;12.60;2.40;;;;;;;;;;4862890;29;20494;-79
2021/12/06 01:12:43;;;;;;;18.10;2.88;;;;;;;;;;4862845;29;20113;-79
2021/12/06 01:15:09;;;;;;;14.68;2.90;;;;;;;;;;4856891;29;20079;-79
2021/12/06 01:17:35;;;;;;;17.38;3.15;;;;;;;;;;4844249;29;20427;-79
2021/12/06 01:20:04;;;;;;;17.88;2.90;;;;;;;;;;4861253;29;20402;-79
2021/12/06 01:22:53;;;;;;;18.23;3.47;;;;;;;;;;4861711;29;20029;-79
2021/12/06 01:41:13;;;;;;;17.83;3.17;;;;;;;;;;4862835;29;20043;-79
2021/12/06 01:43:59;;;;;;;12.98;2.38;;;;;;;;;;4860661;29;20029;-79
2021/12/06 01:46:25;;;;;;;19.40;2.85;;;;;;;;;;4853157;29;20033;-79
2021/12/06 01:48:51;;;;;;;14.40;2.63;;;;;;;;;;4860886;29;20089;-79
2021/12/06 01:51:17;;;;;;;12.18;2.33;;;;;;;;;;4862542;29;20029;-79
2021/12/06 01:53:43;;;;;;;14.93;2.88;;;;;;;;;;4862485;29;20053;-79
2021/12/06 01:56:09;;;;;;;22.80;3.28;;;;;;;;;;4861738;29;20064;-79
2021/12/06 01:58:35;;;;;;;12.73;2.60;;;;;;;;;;4847606;29;20069;-79
2021/12/06 02:01:01;;;;;;;19.48;2.40;;;;;;;;;;4857190;29;20029;-79
2021/12/06 02:03:27;;;;;;;14.60;2.40;;;;;;;;;;4862027;29;20041;-79
2021/12/06 02:05:53;;;;;;;18.92;2.30;;;;;;;;;;4861890;29;20033;-79
2021/12/06 02:08:19;;;;;;;14.52;2.33;;;;;;;;;;4862203;29;20033;-80
2021/12/06 02:10:45;;;;;;;15.80;2.22;;;;;;;;;;4861753;29;20080;-79
2021/12/06 02:13:12;;;;;;;15.57;2.47;;;;;;;;;;4849375;29;20118;-79
2021/12/06 02:18:13;;;;;;;16.33;2.33;;;;;;;;;;4858320;29;20041;-79
2021/12/06 02:20:49;;;;;;;21.38;3.42;;;;;;;;;;4861259;29;20534;-79
2021/12/06 02:23:15;;;;;;;15.18;2.30;;;;;;;;;;4861832;29;20108;-79
2021/12/06 02:25:41;;;;;;;9.40;1.90;;;;;;;;;;4861236;29;20082;-79
2021/12/06 02:28:08;;;;;;;9.75;1.95;;;;;;;;;;4861595;29;20034;-79
2021/12/06 02:30:34;;;;;;;13.82;2.10;;;;;;;;;;4861651;29;20670;-79
2021/12/06 02:33:00;;;;;;;12.50;1.92;;;;;;;;;;4861560;29;20166;-79
2021/12/06 02:35:27;;;;;;;16.90;2.67;;;;;;;;;;4859751;29;20443;-79
2021/12/06 02:37:53;;;;;;;19.50;3.33;;;;;;;;;;4848240;29;20053;-79
2021/12/06 02:40:27;;;;;;;10.75;1.88;;;;;;;;;;4842753;29;20026;-79
2021/12/06 02:42:54;;;;;;;10.75;2.67;;;;;;;;;;4855304;29;20356;-79
2021/12/06 02:45:25;;;;;;;18.73;2.35;;;;;;;;;;4859589;29;20025;-79
2021/12/06 02:47:53;;;;;;;12.40;2.17;;;;;;;;;;4861127;29;20089;-79
2021/12/06 02:50:21;;;;;;;10.63;1.92;;;;;;;;;;4861468;29;20470;-79
2021/12/06 02:52:47;;;;;;;16.30;2.50;;;;;;;;;;4854000;29;20026;-79
2021/12/06 02:55:32;;;;;;;16.23;2.30;;;;;;;;;;4850936;29;20034;-79
2021/12/06 02:58:13;;;;;;;10.85;2.42;;;;;;;;;;4860825;29;20030;-79
2021/12/06 03:00:40;;;;;;;14.65;2.58;;;;;;;;;;4859868;29;20435;-79
2021/12/06 03:03:06;;;;;;;14.02;2.42;;;;;;;;;;4860892;29;20040;-79
2021/12/06 03:05:32;;;;;;;10.70;2.42;;;;;;;;;;4861232;29;20033;-79
2021/12/06 03:08:00;;;;;;;10.57;2.10;;;;;;;;;;4860431;29;20116;-79
2021/12/06 03:10:26;;;;;;;20.73;2.90;;;;;;;;;;4845586;29;20058;-79
2021/12/06 03:12:52;;;;;;;23.13;2.97;;;;;;;;;;4842668;29;20113;-79
2021/12/06 03:15:18;;;;;;;20.52;3.45;;;;;;;;;;4842522;29;20033;-79
2021/12/06 03:17:46;;;;;;;14.60;2.28;;;;;;;;;;4842530;29;20062;-79
2021/12/06 03:20:14;;;;;;;12.40;2.17;;;;;;;;;;4848545;29;20571;-79
2021/12/06 03:22:41;;;;;;;15.18;2.13;;;;;;;;;;4848045;29;20114;-79
2021/12/06 03:25:08;;;;;;;17.08;1.80;;;;;;;;;;4858646;29;20040;-79
2021/12/06 03:27:34;;;;;;;18.35;2.63;;;;;;;;;;4860512;29;20038;-79
2021/12/06 03:30:01;;;;;;;20.63;2.22;;;;;;;;;;4860629;29;20027;-79
2021/12/06 03:32:27;;;;;;;15.02;2.03;;;;;;;;;;4860612;29;20033;-79
2021/12/06 03:34:53;;;;;;;26.55;2.50;;;;;;;;;;4853884;29;20139;-79
2021/12/06 03:37:19;;;;;;;13.15;2.38;;;;;;;;;;4842611;29;20112;-79
2021/12/06 03:39:48;;;;;;;20.13;2.58;;;;;;;;;;4851085;29;20040;-79
2021/12/06 03:42:15;;;;;;;14.02;2.83;;;;;;;;;;4860262;29;20040;-79
2021/12/06 03:44:42;;;;;;;12.80;1.80;;;;;;;;;;4851486;29;20043;-79
2021/12/06 03:47:10;;;;;;;15.90;2.15;;;;;;;;;;4842103;29;20042;-79
2021/12/06 03:49:36;;;;;;;16.40;2.95;;;;;;;;;;4842208;29;20029;-79
2021/12/06 03:52:03;;;;;;;21.55;2.55;;;;;;;;;;4841992;29;20054;-79
2021/12/06 03:54:29;;;;;;;18.05;2.88;;;;;;;;;;4841894;29;20037;-79
2021/12/06 03:56:56;;;;;;;12.00;2.53;;;;;;;;;;4852452;29;20455;-79
2021/12/06 03:59:22;;;;;;;17.08;2.55;;;;;;;;;;4859919;29;20036;-79
2021/12/06 04:01:49;;;;;;;11.60;1.90;;;;;;;;;;4860437;29;20808;-79
2021/12/06 04:04:15;;;;;;;22.42;3.20;;;;;;;;;;4859768;29;20532;-79
2021/12/06 04:06:42;;;;;;;18.50;2.92;;;;;;;;;;4853011;29;20494;-80
2021/12/06 04:09:08;;;;;;;15.27;2.47;;;;;;;;;;4841661;29;20064;-79
2021/12/06 04:11:36;;;;;;;14.27;2.75;;;;;;;;;;4842136;29;20101;-79
2021/12/06 04:14:02;;;;;;;20.25;2.90;;;;;;;;;;4842055;29;20403;-79
2021/12/06 04:16:28;;;;;;;13.80;2.58;;;;;;;;;;4841863;29;20086;-79
2021/12/06 04:18:54;;;;;;;18.58;2.90;;;;;;;;;;4841803;29;20058;-79
2021/12/06 04:21:21;;;;;;;17.83;2.58;;;;;;;;;;4856435;29;20053;-79
2021/12/06 04:23:47;;;;;;;15.52;2.33;;;;;;;;;;4863278;29;20030;-79
2021/12/06 04:26:13;;;;;;;16.23;2.15;;;;;;;;;;4855603;29;20500;-79
2021/12/06 04:28:47;;;;;;;14.55;2.78;;;;;;;;;;4845720;29;20030;-79
2021/12/06 04:31:13;;;;;;;14.65;2.42;;;;;;;;;;4845035;29;20743;-79
2021/12/06 04:33:40;;;;;;;18.02;2.47;;;;;;;;;;4845575;29;20037;-79
2021/12/06 04:36:06;;;;;;;19.25;2.70;;;;;;;;;;4844945;29;20040;-79
2021/12/06 04:38:32;;;;;;;16.20;2.50;;;;;;;;;;4845141;29;20117;-79
2021/12/06 04:40:58;;;;;;;19.30;2.97;;;;;;;;;;4862353;29;20068;-79
2021/12/06 04:43:24;;;;;;;18.05;2.17;;;;;;;;;;4863142;29;20033;-79
2021/12/06 04:45:50;;;;;;;18.30;2.28;;;;;;;;;;4845304;29;20034;-79
2021/12/06 04:48:17;;;;;;;10.27;2.30;;;;;;;;;;4874621;29;20394;-79
2021/12/06 04:50:43;;;;;;;14.75;2.67;;;;;;;;;;4844868;29;20030;-79
2021/12/06 04:53:12;;;;;;;13.13;2.22;;;;;;;;;;4844974;29;20028;-79
2021/12/06 04:55:48;;;;;;;18.17;2.55;;;;;;;;;;4844800;29;20440;-79
2021/12/06 04:58:17;;;;;;;20.95;2.35;;;;;;;;;;4844788;29;20082;-79
2021/12/06 05:00:46;;;;;;;24.13;3.55;;;;;;;;;;4850581;29;20535;-79
2021/12/06 05:03:12;;;;;;;15.60;2.88;;;;;;;;;;4863500;29;20644;-78
2021/12/06 05:05:44;;;;;;;19.73;2.58;;;;;;;;;;4862531;29;20486;-79
2021/12/06 05:08:12;;;;;;;9.33;2.00;;;;;;;;;;4863250;29;20026;-78
2021/12/06 05:10:38;;;;;;;17.50;4.57;;;;;;;;;;4863011;29;20743;-79
2021/12/06 05:13:05;;;;;;;12.25;2.25;;;;;;;;;;4862992;29;20479;-79
2021/12/06 05:15:31;;;;;;;22.80;3.10;;;;;;;;;;4845019;29;20116;-79
2021/12/06 05:17:57;;;;;;;15.52;2.42;;;;;;;;;;4844558;29;20034;-77
2021/12/06 05:20:23;;;;;;;25.70;3.42;;;;;;;;;;4851572;29;20125;-78
2021/12/06 05:22:50;;;;;;;14.15;2.92;;;;;;;;;;4862876;29;20393;-79
2021/12/06 05:25:16;;;;;;;21.48;2.58;;;;;;;;;;4854416;29;20029;-78
2021/12/06 05:27:42;;;;;;;18.63;2.38;;;;;;;;;;4842978;29;20038;-77
2021/12/06 05:30:11;;;;;;;19.23;2.97;;;;;;;;;;4860138;29;20391;-77
2021/12/06 05:32:37;;;;;;;12.43;2.88;;;;;;;;;;4859389;29;20383;-77
2021/12/06 05:35:07;;;;;;;17.83;3.08;;;;;;;;;;4857854;29;20033;-77
2021/12/06 05:37:34;;;;;;;21.52;3.15;;;;;;;;;;4847270;29;20026;-78
2021/12/06 05:40:00;;;;;;;18.25;2.83;;;;;;;;;;4856533;29;20090;-78
2021/12/06 05:42:26;;;;;;;14.82;3.08;;;;;;;;;;4850448;29;20038;-78
2021/12/06 05:44:53;;;;;;;17.67;2.90;;;;;;;;;;4848099;29;20081;-78
2021/12/06 05:47:19;;;;;;;22.33;4.05;;;;;;;;;;4862172;29;20414;-78
2021/12/06 05:49:45;;;;;;;17.95;2.97;;;;;;;;;;4861471;29;20028;-78
2021/12/06 05:52:11;;;;;;;19.17;2.85;;;;;;;;;;4848637;29;20040;-78
2021/12/06 05:54:37;;;;;;;17.13;3.53;;;;;;;;;;4844677;29;20562;-78
2021/12/06 05:57:04;;;;;;;15.80;2.85;;;;;;;;;;4852761;29;20081;-78
2021/12/06 05:59:31;;;;;;;16.25;3.40;;;;;;;;;;4857175;29;20026;-78
2021/12/06 06:01:57;;;;;;;21.63;3.08;;;;;;;;;;4847010;29;20041;-78
2021/12/06 06:04:26;;;;;;;18.90;2.55;;;;;;;;;;4842604;29;20108;-79
2021/12/06 06:06:52;;;;;;;17.17;2.88;;;;;;;;;;4846330;29;20030;-79
2021/12/06 06:09:18;;;;;;;15.25;3.05;;;;;;;;;;4850970;29;20029;-79
2021/12/06 06:11:45;;;;;;;15.95;2.90;;;;;;;;;;4858808;29;20557;-78
2021/12/06 06:14:11;;;;;;;15.95;3.22;;;;;;;;;;4846045;29;20023;-81
2021/12/06 06:16:47;;;;;;;20.17;3.67;;;;;;;;;;4856297;29;20167;-78
2021/12/06 06:19:13;;;;;;;16.75;3.20;;;;;;;;;;4845922;29;20090;-78
2021/12/06 06:21:39;;;;;;;17.27;3.25;;;;;;;;;;4865462;29;20053;-79
2021/12/06 06:24:05;;;;;;;18.38;3.42;;;;;;;;;;4862959;29;20089;-79
2021/12/06 08:54:01;;;;;;;14.45;2.70;;;;;;;;;;4940477;23;20052;-78
2021/12/06 08:56:28;;;;;;;14.00;3.00;;;;;;;;;;4899797;29;20028;-78
2021/12/06 08:58:54;;;;;;;17.23;2.70;;;;;;;;;;4886574;29;20088;-78
2021/12/06 09:01:21;;;;;;;17.65;2.80;;;;;;;;;;4897989;29;20035;-77
2021/12/06 09:03:47;;;;;;;20.45;3.47;;;;;;;;;;4895300;29;20032;-77
2021/12/06 09:06:14;;;;;;;20.95;3.20;;;;;;;;;;4894547;29;20111;-77
2021/12/06 09:08:41;;;;;;;16.65;2.30;;;;;;;;;;4893093;29;20459;-77
2021/12/06 09:11:07;;;;;;;20.23;3.25;;;;;;;;;;4894496;29;20500;-77
2021/12/06 09:13:34;;;;;;;13.25;1.92;;;;;;;;;;4896622;29;20103;-77
2021/12/06 09:16:02;;;;;;;18.63;3.05;;;;;;;;;;4877298;29;20359;-77
2021/12/06 09:18:34;;;;;;;16.67;2.65;;;;;;;;;;4897360;29;20412;-77
2021/12/06 09:21:00;;;;;;;9.90;1.95;;;;;;;;;;4895181;29;20017;-78
2021/12/06 09:23:26;;;;;;;11.88;2.60;;;;;;;;;;4897097;29;20524;-77
2021/12/06 09:25:53;;;;;;;14.30;2.53;;;;;;;;;;4894795;29;20060;-77
2021/12/06 09:28:19;;;;;;;17.00;2.90;;;;;;;;;;4894894;29;20067;-77
2021/12/06 09:30:45;;;;;;;12.15;2.60;;;;;;;;;;4894813;29;20464;-77
2021/12/06 09:33:13;;;;;;;13.05;2.40;;;;;;;;;;4896400;29;20518;-77
2021/12/06 09:35:43;;;;;;;19.02;2.88;;;;;;;;;;4894775;29;20021;-78
2021/12/06 09:38:10;;;;;;;16.98;2.85;;;;;;;;;;4897082;29;20124;-77
2021/12/06 09:40:38;;;;;;;12.00;2.08;;;;;;;;;;4894673;29;20060;-77
2021/12/06 09:43:06;;;;;;;14.73;2.78;;;;;;;;;;4896665;29;20033;-77
2021/12/06 09:45:33;;;;;;;15.82;1.85;;;;;;;;;;4896197;29;20020;-77
2021/12/06 09:48:01;;;;;;;16.15;2.28;;;;;;;;;;4878766;29;20035;-78
2021/12/06 09:50:29;;;;;;;15.15;2.17;;;;;;;;;;4897335;29;20135;-78
2021/12/06 09:52:57;;;;;;;20.13;2.70;;;;;;;;;;4878183;29;20049;-77
2021/12/06 09:55:23;;;;;;;16.42;2.50;;;;;;;;;;4873374;29;20021;-77
2021/12/06 09:57:50;;;;;;;23.65;3.03;;;;;;;;;;4873055;29;20524;-77
2021/12/06 10:00:18;;;;;;;14.25;2.85;;;;;;;;;;4868038;29;20128;-78
2021/12/06 10:02:45;;;;;;;16.73;2.40;;;;;;;;;;4869248;29;20490;-77
2021/12/06 10:05:11;;;;;;;23.02;2.60;;;;;;;;;;4864310;29;20040;-77
2021/12/06 10:07:37;;;;;;;12.30;2.50;;;;;;;;;;4854540;29;20037;-77
2021/12/06 10:10:04;;;;;;;13.98;2.88;;;;;;;;;;4875639;29;20148;-77
2021/12/06 10:12:30;;;;;;;18.25;3.47;;;;;;;;;;4868320;29;20036;-77
2021/12/06 10:15:00;;;;;;;13.57;2.42;;;;;;;;;;4851372;29;20036;-77
2021/12/06 10:17:26;;;;;;;15.50;2.97;;;;;;;;;;4867265;29;20037;-77
2021/12/06 10:19:52;;;;;;;18.52;2.67;;;;;;;;;;4869531;29;20389;-76
2021/12/06 10:22:18;;;;;;;13.20;2.47;;;;;;;;;;4869404;29;20603;-76
2021/12/06 10:24:56;;;;;;;7.93;2.42;;;;;;;;;;4875302;29;20485;-77
2021/12/06 10:27:22;;;;;;;14.18;3.22;;;;;;;;;;4874481;29;20181;-76
2021/12/06 10:29:52;;;;;;;14.65;2.53;;;;;;;;;;4872999;29;20052;-77
2021/12/06 10:32:20;;;;;;;11.95;2.22;;;;;;;;;;4849019;29;20493;-76
2021/12/06 10:34:52;;;;;;;14.98;2.13;;;;;;;;;;4865949;29;20052;-76
2021/12/06 10:37:36;;;;;;;15.60;2.83;;;;;;;;;;4872224;29;20509;-76
2021/12/06 10:40:05;;;;;;;16.58;2.80;;;;;;;;;;4878269;29;20021;-77
2021/12/06 10:42:36;;;;;;;14.20;2.22;;;;;;;;;;4870637;29;20041;-76
2021/12/06 10:45:21;;;;;;;10.60;2.15;;;;;;;;;;4869053;29;20029;-73
2021/12/06 10:48:05;;;;;;;13.25;2.38;;;;;;;;;;4869137;29;20030;-76
2021/12/06 10:50:31;;;;;;;13.02;2.63;;;;;;;;;;4875185;29;20092;-76
2021/12/06 10:52:59;;;;;;;14.05;2.70;;;;;;;;;;4867359;29;20049;-76
2021/12/06 10:55:28;;;;;;;14.07;3.00;;;;;;;;;;4868727;29;20021;-76
2021/12/06 10:57:55;;;;;;;17.50;2.72;;;;;;;;;;4856746;29;20063;-77
2021/12/06 11:00:31;;;;;;;12.02;2.08;;;;;;;;;;4872307;29;20769;-76
2021/12/06 11:02:57;;;;;;;20.70;3.15;;;;;;;;;;4869304;29;20802;-76
2021/12/06 11:05:24;;;;;;;12.88;2.58;;;;;;;;;;4872024;29;20806;-76
2021/12/06 11:07:56;;;;;;;20.33;2.83;;;;;;;;;;4866449;29;20030;-76
2021/12/06 11:10:25;;;;;;;15.55;2.05;;;;;;;;;;4875243;29;20045;-77
2021/12/06 11:13:11;;;;;;;12.32;2.22;;;;;;;;;;4876774;29;20074;-77
2021/12/06 11:15:50;;;;;;;15.52;2.28;;;;;;;;;;4868369;29;20497;-77
2021/12/06 11:18:28;;;;;;;8.93;2.05;;;;;;;;;;4875036;29;20572;-77
2021/12/06 11:20:54;;;;;;;13.75;2.17;;;;;;;;;;4868563;29;20112;-76
2021/12/06 11:23:20;;;;;;;12.13;2.78;;;;;;;;;;4853388;29;20119;-76
2021/12/06 11:26:01;;;;;;;26.50;6.35;;;;;;;;;;4867649;29;20074;-76
2021/12/06 11:28:29;;;;;;;16.25;2.47;;;;;;;;;;4874180;29;20048;-78
2021/12/06 11:30:59;;;;;;;12.70;2.67;;;;;;;;;;4877774;29;20029;-76
2021/12/06 11:33:26;;;;;;;18.80;3.92;;;;;;;;;;4865133;29;20033;-78
2021/12/06 11:35:52;;;;;;;21.58;4.45;;;;;;;;;;4876555;29;20517;-78
2021/12/06 11:38:19;;;;;;;17.38;2.20;;;;;;;;;;4868571;29;20036;-79
2021/12/06 11:40:45;;;;;;;14.68;2.67;;;;;;;;;;4870193;29;20033;-78
2021/12/06 11:43:13;;;;;;;13.20;3.05;;;;;;;;;;4869086;29;20033;-79
2021/12/06 11:45:45;;;;;;;22.30;3.58;;;;;;;;;;4875892;29;20061;-80
2021/12/06 11:48:26;;;;;;;15.55;2.50;;;;;;;;;;4872896;29;20076;-79
2021/12/06 11:50:52;;;;;;;20.35;3.35;;;;;;;;;;4872546;29;20126;-79
2021/12/06 11:53:21;;;;;;;21.70;3.13;;;;;;;;;;4869853;29;20471;-80
2021/12/06 11:55:49;;;;;;;18.67;2.75;;;;;;;;;;4876212;29;20040;-80
2021/12/06 11:58:31;;;;;;;13.13;2.13;;;;;;;;;;4862612;29;20021;-80
2021/12/06 12:01:11;;;;;;;15.77;2.78;;;;;;;;;;4874966;29;20124;-80
2021/12/06 12:03:38;;;;;;;16.73;3.55;;;;;;;;;;4871397;29;20025;-80
2021/12/06 12:06:20;;;;;;;13.95;2.63;;;;;;;;;;4875867;29;20044;-80
2021/12/06 12:08:47;;;;;;;17.13;3.55;;;;;;;;;;4876304;29;20225;-79
2021/12/06 12:11:13;;;;;;;8.23;2.00;;;;;;;;;;4865150;29;20038;-80
2021/12/06 12:13:39;;;;;;;14.18;2.63;;;;;;;;;;4868395;29;20067;-80
2021/12/06 12:16:05;;;;;;;24.17;2.60;;;;;;;;;;4869802;29;20124;-80
2021/12/06 12:18:32;;;;;;;11.68;2.38;;;;;;;;;;4869038;29;20228;-80
2021/12/06 12:20:58;;;;;;;11.27;1.90;;;;;;;;;;4847253;29;20026;-80
2021/12/06 12:23:26;;;;;;;13.77;2.75;;;;;;;;;;4871724;29;20108;-80
2021/12/06 12:26:00;;;;;;;13.13;1.67;;;;;;;;;;4873209;29;20029;-80
2021/12/06 12:28:35;;;;;;;15.57;2.53;;;;;;;;;;4873410;29;20017;-81
2021/12/06 12:31:02;;;;;;;13.82;2.45;;;;;;;;;;4871764;29;20037;-80
2021/12/06 12:33:28;;;;;;;13.23;1.92;;;;;;;;;;4870030;29;20017;-78
2021/12/06 12:35:57;;;;;;;12.13;2.13;;;;;;;;;;4874158;29;20040;-80
2021/12/06 12:38:27;;;;;;;11.32;2.13;;;;;;;;;;4870568;29;20036;-80
2021/12/06 12:41:00;;;;;;;19.33;6.13;;;;;;;;;;4851231;29;20398;-80
2021/12/06 12:43:40;;;;;;;17.02;2.75;;;;;;;;;;4875645;29;20025;-80
2021/12/06 12:46:11;;;;;;;9.20;2.00;;;;;;;;;;4871909;29;20040;-80
2021/12/06 12:48:52;;;;;;;11.80;2.72;;;;;;;;;;4880522;29;20028;-80
2021/12/06 12:51:20;;;;;;;15.18;2.17;;;;;;;;;;4876364;29;20037;-79
2021/12/06 12:53:54;;;;;;;11.60;1.95;;;;;;;;;;4873902;29;20056;-80
2021/12/06 12:56:28;;;;;;;13.90;2.65;;;;;;;;;;4862213;29;20496;-80
2021/12/06 12:58:54;;;;;;;14.43;2.40;;;;;;;;;;4873176;29;20040;-80
2021/12/06 13:01:22;;;;;;;18.88;3.10;;;;;;;;;;4853934;29;20394;-81
2021/12/06 13:03:53;;;;;;;17.85;2.40;;;;;;;;;;4858965;29;20033;-80
2021/12/06 13:06:24;;;;;;;10.70;2.10;;;;;;;;;;4869251;29;20057;-80
2021/12/06 13:08:53;;;;;;;18.73;2.70;;;;;;;;;;4871940;29;20033;-80
2021/12/06 13:11:19;;;;;;;10.45;1.77;;;;;;;;;;4871428;29;20449;-79
2021/12/06 13:13:48;;;;;;;10.13;1.83;;;;;;;;;;4875521;29;20022;-77
2021/12/06 13:16:30;;;;;;;15.30;2.38;;;;;;;;;;4871631;29;20033;-80
2021/12/06 13:19:07;;;;;;;18.60;2.28;;;;;;;;;;4873277;29;20032;-81
2021/12/06 13:21:47;;;;;;;11.50;1.95;;;;;;;;;;4862402;29;20057;-80
2021/12/06 13:24:15;;;;;;;12.13;1.83;;;;;;;;;;4866623;29;20029;-80
2021/12/06 13:26:46;;;;;;;12.30;2.28;;;;;;;;;;4874925;29;20025;-80
2021/12/06 13:29:19;;;;;;;14.90;2.25;;;;;;;;;;4875302;29;20029;-81
2021/12/06 13:31:46;;;;;;;14.20;2.85;;;;;;;;;;4872144;29;20058;-80
2021/12/06 13:34:19;;;;;;;12.35;2.13;;;;;;;;;;4867934;29;20490;-80
2021/12/06 13:36:48;;;;;;;16.67;2.00;;;;;;;;;;4860312;29;20037;-80
2021/12/06 13:39:30;;;;;;;11.73;1.90;;;;;;;;;;4873309;29;20055;-80
2021/12/06 13:41:57;;;;;;;15.60;2.40;;;;;;;;;;4879282;29;20032;-80
2021/12/06 13:44:37;;;;;;;17.73;2.83;;;;;;;;;;4856503;29;20899;-80
2021/12/06 13:47:08;;;;;;;16.27;2.40;;;;;;;;;;4869344;29;20509;-80
2021/12/06 13:49:34;;;;;;;14.25;2.35;;;;;;;;;;4869975;29;20033;-80
2021/12/06 13:52:02;;;;;;;17.85;3.22;;;;;;;;;;4874939;29;20052;-80
2021/12/06 13:54:34;;;;;;;14.25;2.47;;;;;;;;;;4874325;29;20140;-80
2021/12/06 13:57:06;;;;;;;26.35;3.35;;;;;;;;;;4873663;29;20025;-80
2021/12/06 13:59:39;;;;;;;17.52;3.55;;;;;;;;;;4867138;29;20037;-79
2021/12/06 14:02:07;;;;;;;11.95;2.13;;;;;;;;;;4871161;29;20021;-80
2021/12/06 14:04:38;;;;;;;19.48;2.85;;;;;;;;;;4874050;29;20082;-80
2021/12/06 14:07:06;;;;;;;14.57;2.28;;;;;;;;;;4872506;29;20029;-80
2021/12/06 14:09:44;;;;;;;14.40;2.58;;;;;;;;;;4873105;29;20029;-79
2021/12/06 14:12:12;;;;;;;19.02;2.97;;;;;;;;;;4875225;29;20052;-78
2021/12/06 14:14:40;;;;;;;20.58;3.22;;;;;;;;;;4872144;29;20033;-80
2021/12/06 14:17:07;;;;;;;14.95;2.38;;;;;;;;;;4862067;29;20504;-80
2021/12/06 14:19:33;;;;;;;15.50;2.58;;;;;;;;;;4873383;29;20029;-81
2021/12/06 14:22:01;;;;;;;23.23;2.85;;;;;;;;;;4876254;29;20028;-80
2021/12/06 14:24:28;;;;;;;13.18;2.25;;;;;;;;;;4877702;29;20101;-80
2021/12/06 14:26:54;;;;;;;16.13;2.70;;;;;;;;;;4869813;29;20033;-80
2021/12/06 14:29:22;;;;;;;16.38;2.50;;;;;;;;;;4878780;29;20085;-79
2021/12/06 14:31:51;;;;;;;14.07;2.85;;;;;;;;;;4859017;29;20039;-80
2021/12/06 14:34:17;;;;;;;13.95;3.50;;;;;;;;;;4871920;29;20116;-79
2021/12/06 14:36:44;;;;;;;15.32;1.77;;;;;;;;;;4876927;29;20055;-79
2021/12/06 14:39:10;;;;;;;20.23;3.33;;;;;;;;;;4877503;29;20033;-79
2021/12/06 14:41:48;;;;;;;23.05;2.38;;;;;;;;;;4873377;29;20021;-79
2021/12/06 14:44:28;;;;;;;19.20;2.80;;;;;;;;;;4869872;29;20515;-79
2021/12/06 14:46:55;;;;;;;16.83;2.70;;;;;;;;;;4870812;29;20033;-78
2021/12/06 14:49:21;;;;;;;19.63;2.67;;;;;;;;;;4871027;29;20104;-78
2021/12/06 14:51:47;;;;;;;14.50;2.20;;;;;;;;;;4873438;29;20142;-79
2021/12/06 14:54:21;;;;;;;16.85;2.25;;;;;;;;;;4875227;29;20032;-79
2021/12/06 14:56:52;;;;;;;19.38;2.80;;;;;;;;;;4869910;29;20025;-79
2021/12/06 14:59:21;;;;;;;14.47;2.47;;;;;;;;;;4867280;29;20029;-79
2021/12/06 15:01:47;;;;;;;16.88;2.50;;;;;;;;;;4864891;29;20566;-79
2021/12/06 15:04:17;;;;;;;18.02;2.63;;;;;;;;;;4871884;29;20408;-79
2021/12/06 15:06:43;;;;;;;16.35;2.78;;;;;;;;;;4866810;29;20022;-79
2021/12/06 15:09:12;;;;;;;13.80;2.40;;;;;;;;;;4873836;29;20032;-76
2021/12/06 15:11:38;;;;;;;15.57;2.70;;;;;;;;;;4872819;29;20152;-79
2021/12/06 15:14:05;;;;;;;13.68;2.47;;;;;;;;;;4873625;29;20021;-79
2021/12/06 15:16:32;;;;;;;16.63;2.25;;;;;;;;;;4865913;29;20067;-79
2021/12/06 15:18:58;;;;;;;15.50;3.08;;;;;;;;;;4867380;29;20037;-79
2021/12/06 15:21:26;;;;;;;15.38;2.20;;;;;;;;;;4870697;29;20088;-79
2021/12/06 15:23:54;;;;;;;14.73;2.55;;;;;;;;;;4868936;29;20041;-79
2021/12/06 15:26:25;;;;;;;16.83;2.97;;;;;;;;;;4858576;29;20037;-79
2021/12/06 15:28:53;;;;;;;18.25;2.47;;;;;;;;;;4869921;29;20557;-79
2021/12/06 15:31:19;;;;;;;15.27;2.63;;;;;;;;;;4860954;29;20149;-79
2021/12/06 15:33:48;;;;;;;21.23;2.22;;;;;;;;;;4867400;29;20396;-79
2021/12/06 15:36:15;;;;;;;11.95;2.30;;;;;;;;;;4869315;29;20041;-79
2021/12/06 15:38:46;;;;;;;11.77;2.38;;;;;;;;;;4876643;29;20031;-78
2021/12/06 15:41:15;;;;;;;17.40;2.78;;;;;;;;;;4874476;29;20505;-79
2021/12/06 15:43:45;;;;;;;13.13;2.63;;;;;;;;;;4871690;29;20036;-79
2021/12/06 15:46:11;;;;;;;17.90;3.08;;;;;;;;;;4868348;29;20033;-79
2021/12/06 15:48:39;;;;;;;12.00;2.60;;;;;;;;;;4867042;29;20088;-79
2021/12/06 15:51:10;;;;;;;18.55;3.75;;;;;;;;;;4868321;29;20490;-80
2021/12/06 15:53:41;;;;;;;16.98;2.40;;;;;;;;;;4872033;29;20045;-82
2021/12/06 15:56:07;;;;;;;12.55;2.25;;;;;;;;;;4874029;29;20048;-79
2021/12/06 15:58:33;;;;;;;13.38;2.47;;;;;;;;;;4847431;29;20117;-79
2021/12/06 16:01:01;;;;;;;9.48;2.15;;;;;;;;;;4866294;29;20033;-78
2021/12/06 16:03:29;;;;;;;17.73;2.65;;;;;;;;;;4867733;29;20026;-79
2021/12/06 16:05:56;;;;;;;15.40;2.00;;;;;;;;;;4876365;29;20033;-78
2021/12/06 16:08:23;;;;;;;15.45;2.58;;;;;;;;;;4867969;29;20040;-77
2021/12/06 16:10:54;;;;;;;14.02;2.40;;;;;;;;;;4868881;29;20044;-77
2021/12/06 16:13:22;;;;;;;11.07;2.73;;;;;;;;;;4863809;29;20139;-77
2021/12/06 16:15:50;;;;;;;15.75;2.65;;;;;;;;;;4876636;29;20031;-80
2021/12/06 16:18:18;;;;;;;15.15;2.80;;;;;;;;;;4874405;29;20104;-78
2021/12/06 16:20:46;;;;;;;15.05;2.50;;;;;;;;;;4863826;29;20057;-77
2021/12/06 16:23:17;;;;;;;12.07;2.85;;;;;;;;;;4880973;29;20485;-78
2021/12/06 16:25:45;;;;;;;10.52;2.55;;;;;;;;;;4859285;29;20033;-77
2021/12/06 16:28:11;;;;;;;15.20;2.35;;;;;;;;;;4880902;29;20108;-77
2021/12/06 16:30:37;;;;;;;25.17;3.20;;;;;;;;;;4882333;29;20049;-75
2021/12/06 16:33:03;;;;;;;19.25;3.03;;;;;;;;;;4880367;29;20064;-77
2021/12/06 16:35:29;;;;;;;16.00;2.70;;;;;;;;;;4881530;29;20040;-77
2021/12/06 16:38:14;;;;;;;17.90;2.50;;;;;;;;;;4877541;29;20033;-77
2021/12/06 16:40:40;;;;;;;16.25;3.30;;;;;;;;;;4876215;29;20033;-77
2021/12/06 16:43:08;;;;;;;18.00;3.42;;;;;;;;;;4871049;29;20061;-77
2021/12/06 16:45:35;;;;;;;10.30;2.40;;;;;;;;;;4873191;29;20508;-77
2021/12/06 16:48:02;;;;;;;13.45;2.95;;;;;;;;;;4880473;29;20072;-77
2021/12/06 16:50:29;;;;;;;13.75;3.40;;;;;;;;;;4879689;29;20029;-77
2021/12/06 16:53:00;;;;;;;16.00;3.63;;;;;;;;;;4881265;29;20041;-77
2021/12/06 16:55:29;;;;;;;11.52;2.85;;;;;;;;;;4865822;29;20028;-77
2021/12/06 16:57:57;;;;;;;11.32;3.05;;;;;;;;;;4864362;29;20065;-77
2021/12/06 17:00:23;;;;;;;18.33;3.60;;;;;;;;;;4881167;29;20079;-77
2021/12/06 17:02:56;;;;;;;20.30;4.55;;;;;;;;;;4861437;29;20413;-77
2021/12/06 17:05:21;;;;;;;;;;;;;;;;;;4878268;29;20119;-77
2021/12/06 17:07:49;;;;;;;15.43;3.35;;;;;;;;;;4872901;29;19916;-77
2021/12/06 17:10:18;;;;;;;19.05;3.65;;;;;;;;;;4854238;29;20029;-77
2021/12/06 17:12:47;;;;;;;14.25;3.40;;;;;;;;;;4879428;29;20093;-77
2021/12/06 17:15:17;;;;;;;16.77;3.25;;;;;;;;;;4871720;29;20024;-77
2021/12/06 17:17:48;;;;;;;22.95;3.45;;;;;;;;;;4873386;29;20029;-77
2021/12/06 17:20:16;;;;;;;12.93;2.47;;;;;;;;;;4870044;29;20063;-78
2021/12/06 17:22:47;;;;;;;17.50;3.90;;;;;;;;;;4875349;29;20405;-77
2021/12/06 17:25:13;;;;;;;15.38;3.33;;;;;;;;;;4874510;29;20532;-77